sensor_id;sensor_type;location;lat;lon;timestamp;temperature;humidity
22145;DHT22;11238;48.730;11.566;2022-08-21T00:02:23;17.70;99.90
22145;DHT22;11238;48.730;11.566;2022-08-21T00:04:49;17.70;99.90
22145;DHT22;11238;48.730;11.566;2022-08-21T00:07:17;17.70;99.90
22145;DHT22;11238;48.730;11.566;2022-08-21T00:09:43;17.70;99.90
22145;DHT22;11238;48.730;11.566;2022-08-21T00:12:10;17.60;99.90
22145;DHT22;11238;48.730;11.566;2022-08-21T00:14:36;17.60;99.90
22145;DHT22;11238;48.730;11.566;2022-08-21T00:17:03;17.60;99.90
22145;DHT22;11238;48.730;11.566;2022-08-21T00:19:30;17.60;99.90
22145;DHT22;11238;48.730;11.566;2022-08-21T00:21:57;17.60;99.90
22145;DHT22;11238;48.730;11.566;2022-08-21T00:24:23;17.60;99.90
22145;DHT22;11238;48.730;11.566;2022-08-21T00:26:50;17.60;99.90
22145;DHT22;11238;48.730;11.566;2022-08-21T00:29:17;17.60;99.90
22145;DHT22;11238;48.730;11.566;2022-08-21T00:31:44;17.60;99.90
22145;DHT22;11238;48.730;11.566;2022-08-21T00:34:11;17.60;99.90
22145;DHT22;11238;48.730;11.566;2022-08-21T00:36:38;17.50;99.90
22145;DHT22;11238;48.730;11.566;2022-08-21T00:39:06;17.40;99.90
22145;DHT22;11238;48.730;11.566;2022-08-21T00:41:35;17.50;99.90
22145;DHT22;11238;48.730;11.566;2022-08-21T00:44:02;17.40;99.90
22145;DHT22;11238;48.730;11.566;2022-08-21T00:46:28;17.40;99.90
22145;DHT22;11238;48.730;11.566;2022-08-21T00:48:54;17.40;99.90
22145;DHT22;11238;48.730;11.566;2022-08-21T00:51:25;17.40;99.90
22145;DHT22;11238;48.730;11.566;2022-08-21T00:53:54;17.40;99.90
22145;DHT22;11238;48.730;11.566;2022-08-21T00:56:23;17.40;99.90
22145;DHT22;11238;48.730;11.566;2022-08-21T00:58:49;17.30;99.90
22145;DHT22;11238;48.730;11.566;2022-08-21T01:01:15;17.40;99.90
22145;DHT22;11238;48.730;11.566;2022-08-21T01:03:41;17.40;99.90
22145;DHT22;11238;48.730;11.566;2022-08-21T01:06:07;17.40;99.90
22145;DHT22;11238;48.730;11.566;2022-08-21T01:08:34;17.40;99.90
22145;DHT22;11238;48.730;11.566;2022-08-21T01:11:00;17.30;99.90
22145;DHT22;11238;48.730;11.566;2022-08-21T01:13:31;17.20;99.90
22145;DHT22;11238;48.730;11.566;2022-08-21T01:15:59;17.20;99.90
22145;DHT22;11238;48.730;11.566;2022-08-21T01:18:26;17.20;99.90
22145;DHT22;11238;48.730;11.566;2022-08-21T01:21:28;17.20;99.90
22145;DHT22;11238;48.730;11.566;2022-08-21T01:23:55;17.10;99.90
22145;DHT22;11238;48.730;11.566;2022-08-21T01:26:25;17.10;99.90
22145;DHT22;11238;48.730;11.566;2022-08-21T01:28:59;17.10;99.90
22145;DHT22;11238;48.730;11.566;2022-08-21T01:31:28;17.10;99.90
22145;DHT22;11238;48.730;11.566;2022-08-21T01:33:55;17.00;99.90
22145;DHT22;11238;48.730;11.566;2022-08-21T01:36:22;17.00;99.90
22145;DHT22;11238;48.730;11.566;2022-08-21T01:38:49;17.00;99.90
22145;DHT22;11238;48.730;11.566;2022-08-21T01:41:16;17.00;99.90
22145;DHT22;11238;48.730;11.566;2022-08-21T01:43:42;16.90;99.90
22145;DHT22;11238;48.730;11.566;2022-08-21T01:46:10;16.90;99.90
22145;DHT22;11238;48.730;11.566;2022-08-21T01:48:36;16.80;99.90
22145;DHT22;11238;48.730;11.566;2022-08-21T01:51:02;16.80;99.90
22145;DHT22;11238;48.730;11.566;2022-08-21T01:53:28;16.90;99.90
22145;DHT22;11238;48.730;11.566;2022-08-21T01:55:54;16.90;99.90
22145;DHT22;11238;48.730;11.566;2022-08-21T01:58:19;16.90;99.90
22145;DHT22;11238;48.730;11.566;2022-08-21T02:00:45;16.80;99.90
22145;DHT22;11238;48.730;11.566;2022-08-21T02:03:11;16.80;99.90
22145;DHT22;11238;48.730;11.566;2022-08-21T02:05:37;16.80;99.90
22145;DHT22;11238;48.730;11.566;2022-08-21T02:08:03;16.80;99.90
22145;DHT22;11238;48.730;11.566;2022-08-21T02:10:32;16.70;99.90
22145;DHT22;11238;48.730;11.566;2022-08-21T02:12:59;16.80;99.90
22145;DHT22;11238;48.730;11.566;2022-08-21T02:15:28;16.70;99.90
22145;DHT22;11238;48.730;11.566;2022-08-21T02:17:57;16.60;99.90
22145;DHT22;11238;48.730;11.566;2022-08-21T02:20:31;16.60;99.90
22145;DHT22;11238;48.730;11.566;2022-08-21T02:22:58;16.50;99.90
22145;DHT22;11238;48.730;11.566;2022-08-21T02:25:25;16.50;99.90
22145;DHT22;11238;48.730;11.566;2022-08-21T02:27:52;16.50;99.90
22145;DHT22;11238;48.730;11.566;2022-08-21T02:30:34;16.50;99.90
22145;DHT22;11238;48.730;11.566;2022-08-21T02:33:00;16.50;99.90
22145;DHT22;11238;48.730;11.566;2022-08-21T02:35:26;16.50;99.90
22145;DHT22;11238;48.730;11.566;2022-08-21T02:37:55;16.50;99.90
22145;DHT22;11238;48.730;11.566;2022-08-21T02:40:25;16.40;99.90
22145;DHT22;11238;48.730;11.566;2022-08-21T02:42:52;16.40;99.90
22145;DHT22;11238;48.730;11.566;2022-08-21T02:45:18;16.40;99.90
22145;DHT22;11238;48.730;11.566;2022-08-21T02:47:53;16.40;99.90
22145;DHT22;11238;48.730;11.566;2022-08-21T02:50:28;16.20;99.90
22145;DHT22;11238;48.730;11.566;2022-08-21T02:52:55;16.20;99.90
22145;DHT22;11238;48.730;11.566;2022-08-21T02:55:23;16.10;99.90
22145;DHT22;11238;48.730;11.566;2022-08-21T02:57:50;16.10;99.90
22145;DHT22;11238;48.730;11.566;2022-08-21T03:00:16;16.10;99.90
22145;DHT22;11238;48.730;11.566;2022-08-21T03:02:42;16.10;99.90
22145;DHT22;11238;48.730;11.566;2022-08-21T03:05:09;16.00;99.90
22145;DHT22;11238;48.730;11.566;2022-08-21T03:07:36;16.00;99.90
22145;DHT22;11238;48.730;11.566;2022-08-21T03:10:04;16.00;99.90
22145;DHT22;11238;48.730;11.566;2022-08-21T03:12:30;16.00;99.90
22145;DHT22;11238;48.730;11.566;2022-08-21T03:14:56;15.90;99.90
22145;DHT22;11238;48.730;11.566;2022-08-21T03:17:23;15.90;99.90
22145;DHT22;11238;48.730;11.566;2022-08-21T03:19:50;15.80;99.90
22145;DHT22;11238;48.730;11.566;2022-08-21T03:22:15;15.70;99.90
22145;DHT22;11238;48.730;11.566;2022-08-21T03:24:41;15.80;99.90
22145;DHT22;11238;48.730;11.566;2022-08-21T03:27:07;15.80;99.90
22145;DHT22;11238;48.730;11.566;2022-08-21T03:29:33;15.80;99.90
22145;DHT22;11238;48.730;11.566;2022-08-21T03:31:59;15.70;99.90
22145;DHT22;11238;48.730;11.566;2022-08-21T03:34:24;15.70;99.90
22145;DHT22;11238;48.730;11.566;2022-08-21T03:36:50;15.70;99.90
22145;DHT22;11238;48.730;11.566;2022-08-21T03:39:17;15.70;99.90
22145;DHT22;11238;48.730;11.566;2022-08-21T03:41:44;15.60;99.90
22145;DHT22;11238;48.730;11.566;2022-08-21T03:44:10;15.60;99.90
22145;DHT22;11238;48.730;11.566;2022-08-21T03:46:37;15.50;99.90
22145;DHT22;11238;48.730;11.566;2022-08-21T03:49:03;15.60;99.90
22145;DHT22;11238;48.730;11.566;2022-08-21T03:51:29;15.50;99.90
22145;DHT22;11238;48.730;11.566;2022-08-21T03:53:57;15.50;99.90
22145;DHT22;11238;48.730;11.566;2022-08-21T03:56:23;15.60;99.90
22145;DHT22;11238;48.730;11.566;2022-08-21T03:58:49;15.60;99.90
22145;DHT22;11238;48.730;11.566;2022-08-21T04:01:15;15.60;99.90
22145;DHT22;11238;48.730;11.566;2022-08-21T04:03:40;15.60;99.90
22145;DHT22;11238;48.730;11.566;2022-08-21T04:06:07;15.60;99.90
22145;DHT22;11238;48.730;11.566;2022-08-21T04:08:33;15.60;99.90
22145;DHT22;11238;48.730;11.566;2022-08-21T04:11:00;15.60;99.90
22145;DHT22;11238;48.730;11.566;2022-08-21T04:13:26;15.50;99.90
22145;DHT22;11238;48.730;11.566;2022-08-21T04:15:54;15.50;99.90
22145;DHT22;11238;48.730;11.566;2022-08-21T04:18:20;15.40;99.90
22145;DHT22;11238;48.730;11.566;2022-08-21T04:20:49;15.40;99.90
22145;DHT22;11238;48.730;11.566;2022-08-21T04:23:18;15.40;99.90
22145;DHT22;11238;48.730;11.566;2022-08-21T04:25:44;15.40;99.90
22145;DHT22;11238;48.730;11.566;2022-08-21T04:28:10;15.40;99.90
22145;DHT22;11238;48.730;11.566;2022-08-21T04:30:36;15.40;99.90
22145;DHT22;11238;48.730;11.566;2022-08-21T04:33:02;15.40;99.90
22145;DHT22;11238;48.730;11.566;2022-08-21T04:35:29;15.30;99.90
22145;DHT22;11238;48.730;11.566;2022-08-21T04:37:56;15.30;99.90
22145;DHT22;11238;48.730;11.566;2022-08-21T04:40:24;15.20;99.90
22145;DHT22;11238;48.730;11.566;2022-08-21T04:43:00;15.20;99.90
22145;DHT22;11238;48.730;11.566;2022-08-21T04:45:33;15.10;99.90
22145;DHT22;11238;48.730;11.566;2022-08-21T04:48:01;15.20;99.90
22145;DHT22;11238;48.730;11.566;2022-08-21T04:53:18;15.10;99.90
22145;DHT22;11238;48.730;11.566;2022-08-21T04:55:46;15.10;99.90
22145;DHT22;11238;48.730;11.566;2022-08-21T04:58:14;15.10;99.90
22145;DHT22;11238;48.730;11.566;2022-08-21T05:00:41;15.10;99.90
22145;DHT22;11238;48.730;11.566;2022-08-21T05:03:09;15.10;99.90
22145;DHT22;11238;48.730;11.566;2022-08-21T05:05:37;15.10;99.90
22145;DHT22;11238;48.730;11.566;2022-08-21T05:08:04;15.20;99.90
22145;DHT22;11238;48.730;11.566;2022-08-21T05:10:31;15.20;99.90
22145;DHT22;11238;48.730;11.566;2022-08-21T05:12:58;15.20;99.90
22145;DHT22;11238;48.730;11.566;2022-08-21T05:15:26;15.30;99.90
22145;DHT22;11238;48.730;11.566;2022-08-21T05:17:51;15.30;99.90
22145;DHT22;11238;48.730;11.566;2022-08-21T05:20:18;15.20;99.90
22145;DHT22;11238;48.730;11.566;2022-08-21T05:22:45;15.20;99.90
22145;DHT22;11238;48.730;11.566;2022-08-21T05:25:11;15.20;99.90
22145;DHT22;11238;48.730;11.566;2022-08-21T05:27:38;15.20;99.90
22145;DHT22;11238;48.730;11.566;2022-08-21T05:30:07;15.20;99.90
22145;DHT22;11238;48.730;11.566;2022-08-21T05:32:35;15.20;99.90
22145;DHT22;11238;48.730;11.566;2022-08-21T05:35:01;15.30;99.90
22145;DHT22;11238;48.730;11.566;2022-08-21T05:37:28;15.40;99.90
22145;DHT22;11238;48.730;11.566;2022-08-21T05:39:53;15.40;99.90
22145;DHT22;11238;48.730;11.566;2022-08-21T05:42:19;15.40;99.90
22145;DHT22;11238;48.730;11.566;2022-08-21T05:44:45;15.50;99.90
22145;DHT22;11238;48.730;11.566;2022-08-21T05:47:11;15.40;99.90
22145;DHT22;11238;48.730;11.566;2022-08-21T05:49:38;15.40;99.90
22145;DHT22;11238;48.730;11.566;2022-08-21T05:52:04;15.60;99.90
22145;DHT22;11238;48.730;11.566;2022-08-21T05:54:30;15.90;99.90
22145;DHT22;11238;48.730;11.566;2022-08-21T05:56:56;16.00;99.90
22145;DHT22;11238;48.730;11.566;2022-08-21T05:59:22;16.00;99.90
22145;DHT22;11238;48.730;11.566;2022-08-21T06:01:48;16.00;99.90
22145;DHT22;11238;48.730;11.566;2022-08-21T06:04:14;16.00;99.90
22145;DHT22;11238;48.730;11.566;2022-08-21T06:06:40;16.00;99.90
22145;DHT22;11238;48.730;11.566;2022-08-21T06:09:06;16.00;99.90
22145;DHT22;11238;48.730;11.566;2022-08-21T06:11:32;16.00;99.90
22145;DHT22;11238;48.730;11.566;2022-08-21T06:13:59;15.90;99.90
22145;DHT22;11238;48.730;11.566;2022-08-21T06:16:26;15.90;99.90
22145;DHT22;11238;48.730;11.566;2022-08-21T06:18:52;16.00;99.90
22145;DHT22;11238;48.730;11.566;2022-08-21T06:21:18;16.00;99.90
22145;DHT22;11238;48.730;11.566;2022-08-21T06:23:44;16.00;99.90
22145;DHT22;11238;48.730;11.566;2022-08-21T06:26:12;16.10;99.90
22145;DHT22;11238;48.730;11.566;2022-08-21T06:28:39;16.10;99.90
22145;DHT22;11238;48.730;11.566;2022-08-21T06:31:20;16.20;99.90
22145;DHT22;11238;48.730;11.566;2022-08-21T06:33:47;16.30;99.90
22145;DHT22;11238;48.730;11.566;2022-08-21T06:36:12;16.40;99.90
22145;DHT22;11238;48.730;11.566;2022-08-21T06:38:39;16.50;99.90
22145;DHT22;11238;48.730;11.566;2022-08-21T06:41:04;16.60;99.90
22145;DHT22;11238;48.730;11.566;2022-08-21T06:43:31;16.60;99.90
22145;DHT22;11238;48.730;11.566;2022-08-21T06:45:56;16.60;99.90
22145;DHT22;11238;48.730;11.566;2022-08-21T06:48:22;16.60;99.90
22145;DHT22;11238;48.730;11.566;2022-08-21T06:50:48;16.60;99.90
22145;DHT22;11238;48.730;11.566;2022-08-21T06:53:17;16.70;99.90
22145;DHT22;11238;48.730;11.566;2022-08-21T06:55:44;16.70;99.90
22145;DHT22;11238;48.730;11.566;2022-08-21T06:58:10;16.80;99.90
22145;DHT22;11238;48.730;11.566;2022-08-21T07:00:40;16.90;99.90
22145;DHT22;11238;48.730;11.566;2022-08-21T07:03:06;17.00;99.90
22145;DHT22;11238;48.730;11.566;2022-08-21T07:05:32;17.00;99.90
22145;DHT22;11238;48.730;11.566;2022-08-21T07:07:58;17.00;99.90
22145;DHT22;11238;48.730;11.566;2022-08-21T07:10:26;17.00;99.90
22145;DHT22;11238;48.730;11.566;2022-08-21T07:12:53;17.10;99.90
22145;DHT22;11238;48.730;11.566;2022-08-21T07:15:20;17.10;99.90
22145;DHT22;11238;48.730;11.566;2022-08-21T07:17:46;17.20;99.90
22145;DHT22;11238;48.730;11.566;2022-08-21T07:20:12;17.20;99.90
22145;DHT22;11238;48.730;11.566;2022-08-21T07:22:38;17.20;99.90
22145;DHT22;11238;48.730;11.566;2022-08-21T07:25:06;17.40;99.90
22145;DHT22;11238;48.730;11.566;2022-08-21T07:27:31;17.40;99.90
22145;DHT22;11238;48.730;11.566;2022-08-21T07:29:57;17.40;99.90
22145;DHT22;11238;48.730;11.566;2022-08-21T07:32:24;17.50;99.90
22145;DHT22;11238;48.730;11.566;2022-08-21T07:34:50;17.60;99.90
22145;DHT22;11238;48.730;11.566;2022-08-21T07:37:16;17.60;99.90
22145;DHT22;11238;48.730;11.566;2022-08-21T07:39:42;17.70;99.90
22145;DHT22;11238;48.730;11.566;2022-08-21T07:42:08;17.70;99.90
22145;DHT22;11238;48.730;11.566;2022-08-21T07:44:35;17.70;99.90
22145;DHT22;11238;48.730;11.566;2022-08-21T07:47:02;17.70;99.90
22145;DHT22;11238;48.730;11.566;2022-08-21T07:49:28;17.80;99.90
22145;DHT22;11238;48.730;11.566;2022-08-21T07:51:54;17.80;99.90
22145;DHT22;11238;48.730;11.566;2022-08-21T07:54:20;17.80;99.90
22145;DHT22;11238;48.730;11.566;2022-08-21T07:56:46;17.90;99.90
22145;DHT22;11238;48.730;11.566;2022-08-21T07:59:12;17.90;99.90
22145;DHT22;11238;48.730;11.566;2022-08-21T08:01:38;18.00;99.90
22145;DHT22;11238;48.730;11.566;2022-08-21T08:04:04;18.00;99.90
22145;DHT22;11238;48.730;11.566;2022-08-21T08:06:30;18.10;99.90
22145;DHT22;11238;48.730;11.566;2022-08-21T08:08:56;18.10;99.90
22145;DHT22;11238;48.730;11.566;2022-08-21T08:11:22;18.20;99.90
22145;DHT22;11238;48.730;11.566;2022-08-21T08:13:49;18.20;99.90
22145;DHT22;11238;48.730;11.566;2022-08-21T08:16:17;18.30;99.90
22145;DHT22;11238;48.730;11.566;2022-08-21T08:18:43;18.30;99.90
22145;DHT22;11238;48.730;11.566;2022-08-21T08:21:11;18.30;99.90
22145;DHT22;11238;48.730;11.566;2022-08-21T08:23:38;18.10;99.90
22145;DHT22;11238;48.730;11.566;2022-08-21T08:26:05;18.10;99.90
22145;DHT22;11238;48.730;11.566;2022-08-21T08:28:31;18.20;99.90
22145;DHT22;11238;48.730;11.566;2022-08-21T08:30:59;18.20;99.90
22145;DHT22;11238;48.730;11.566;2022-08-21T08:33:25;18.30;99.90
22145;DHT22;11238;48.730;11.566;2022-08-21T08:35:51;18.30;99.90
22145;DHT22;11238;48.730;11.566;2022-08-21T08:38:19;18.30;99.90
22145;DHT22;11238;48.730;11.566;2022-08-21T08:43:35;18.40;99.90
22145;DHT22;11238;48.730;11.566;2022-08-21T08:46:06;18.40;99.90
22145;DHT22;11238;48.730;11.566;2022-08-21T08:48:46;18.40;99.90
22145;DHT22;11238;48.730;11.566;2022-08-21T08:51:23;18.40;99.90
22145;DHT22;11238;48.730;11.566;2022-08-21T08:53:56;18.40;99.90
22145;DHT22;11238;48.730;11.566;2022-08-21T08:56:28;18.50;99.90
22145;DHT22;11238;48.730;11.566;2022-08-21T08:58:57;18.50;99.90
22145;DHT22;11238;48.730;11.566;2022-08-21T09:01:24;18.50;99.90
22145;DHT22;11238;48.730;11.566;2022-08-21T09:03:50;18.40;99.90
22145;DHT22;11238;48.730;11.566;2022-08-21T09:09:34;18.40;99.90
22145;DHT22;11238;48.730;11.566;2022-08-21T09:12:33;18.50;99.90
22145;DHT22;11238;48.730;11.566;2022-08-21T09:15:03;18.60;99.90
22145;DHT22;11238;48.730;11.566;2022-08-21T09:18:07;18.70;99.90
22145;DHT22;11238;48.730;11.566;2022-08-21T09:26:14;18.90;99.90
22145;DHT22;11238;48.730;11.566;2022-08-21T09:28:42;19.00;99.90
22145;DHT22;11238;48.730;11.566;2022-08-21T09:31:15;19.10;99.90
22145;DHT22;11238;48.730;11.566;2022-08-21T09:33:44;19.10;99.90
22145;DHT22;11238;48.730;11.566;2022-08-21T09:36:10;19.20;99.90
22145;DHT22;11238;48.730;11.566;2022-08-21T09:38:37;19.30;99.90
22145;DHT22;11238;48.730;11.566;2022-08-21T09:41:08;19.30;99.90
22145;DHT22;11238;48.730;11.566;2022-08-21T09:43:38;19.20;99.90
22145;DHT22;11238;48.730;11.566;2022-08-21T09:46:20;19.40;99.90
22145;DHT22;11238;48.730;11.566;2022-08-21T09:48:49;19.30;99.90
22145;DHT22;11238;48.730;11.566;2022-08-21T09:54:17;19.60;99.90
22145;DHT22;11238;48.730;11.566;2022-08-21T09:59:54;20.00;99.90
22145;DHT22;11238;48.730;11.566;2022-08-21T10:04:54;20.40;99.90
22145;DHT22;11238;48.730;11.566;2022-08-21T10:07:23;20.50;99.90
22145;DHT22;11238;48.730;11.566;2022-08-21T10:10:23;20.60;99.90
22145;DHT22;11238;48.730;11.566;2022-08-21T10:13:05;20.70;99.90
22145;DHT22;11238;48.730;11.566;2022-08-21T10:16:06;20.90;99.90
22145;DHT22;11238;48.730;11.566;2022-08-21T10:18:50;21.00;99.90
22145;DHT22;11238;48.730;11.566;2022-08-21T10:24:31;21.20;99.90
22145;DHT22;11238;48.730;11.566;2022-08-21T10:27:16;21.30;99.90
22145;DHT22;11238;48.730;11.566;2022-08-21T10:29:51;21.20;99.90
22145;DHT22;11238;48.730;11.566;2022-08-21T10:35:06;21.40;99.90
22145;DHT22;11238;48.730;11.566;2022-08-21T10:45:51;22.20;99.90
22145;DHT22;11238;48.730;11.566;2022-08-21T10:48:29;22.50;99.90
22145;DHT22;11238;48.730;11.566;2022-08-21T10:51:09;22.70;99.90
22145;DHT22;11238;48.730;11.566;2022-08-21T10:53:55;22.60;99.90
22145;DHT22;11238;48.730;11.566;2022-08-21T10:56:26;22.80;99.90
22145;DHT22;11238;48.730;11.566;2022-08-21T11:02:26;23.00;99.90
22145;DHT22;11238;48.730;11.566;2022-08-21T11:05:14;23.20;99.90
22145;DHT22;11238;48.730;11.566;2022-08-21T11:07:53;23.00;99.90
22145;DHT22;11238;48.730;11.566;2022-08-21T11:10:24;23.10;99.90
22145;DHT22;11238;48.730;11.566;2022-08-21T11:12:56;22.90;99.90
22145;DHT22;11238;48.730;11.566;2022-08-21T11:18:21;22.60;99.90
22145;DHT22;11238;48.730;11.566;2022-08-21T11:20:54;22.70;99.90
22145;DHT22;11238;48.730;11.566;2022-08-21T11:23:41;22.80;99.90
22145;DHT22;11238;48.730;11.566;2022-08-21T11:26:13;23.20;99.90
22145;DHT22;11238;48.730;11.566;2022-08-21T11:31:37;23.40;99.90
22145;DHT22;11238;48.730;11.566;2022-08-21T11:43:27;23.90;99.90
22145;DHT22;11238;48.730;11.566;2022-08-21T11:46:49;24.10;99.90
22145;DHT22;11238;48.730;11.566;2022-08-21T11:49:29;24.10;99.90
22145;DHT22;11238;48.730;11.566;2022-08-21T11:52:03;24.60;99.90
22145;DHT22;11238;48.730;11.566;2022-08-21T11:54:37;24.70;99.90
22145;DHT22;11238;48.730;11.566;2022-08-21T11:57:22;24.80;99.90
22145;DHT22;11238;48.730;11.566;2022-08-21T12:00:03;24.80;99.90
22145;DHT22;11238;48.730;11.566;2022-08-21T12:02:48;24.90;99.90
22145;DHT22;11238;48.730;11.566;2022-08-21T12:05:32;25.20;99.90
22145;DHT22;11238;48.730;11.566;2022-08-21T12:10:39;25.50;99.90
22145;DHT22;11238;48.730;11.566;2022-08-21T12:13:08;25.70;98.80
22145;DHT22;11238;48.730;11.566;2022-08-21T12:15:34;25.70;99.90
22145;DHT22;11238;48.730;11.566;2022-08-21T12:18:20;25.60;97.10
22145;DHT22;11238;48.730;11.566;2022-08-21T12:23:49;25.60;96.40
22145;DHT22;11238;48.730;11.566;2022-08-21T12:26:31;25.60;95.30
22145;DHT22;11238;48.730;11.566;2022-08-21T12:29:28;25.60;96.90
22145;DHT22;11238;48.730;11.566;2022-08-21T12:37:34;25.20;97.40
22145;DHT22;11238;48.730;11.566;2022-08-21T12:40:04;25.20;96.80
22145;DHT22;11238;48.730;11.566;2022-08-21T12:42:46;25.40;98.30
22145;DHT22;11238;48.730;11.566;2022-08-21T12:45:32;25.50;99.20
22145;DHT22;11238;48.730;11.566;2022-08-21T12:51:05;26.20;96.80
22145;DHT22;11238;48.730;11.566;2022-08-21T12:53:49;26.40;97.00
22145;DHT22;11238;48.730;11.566;2022-08-21T12:56:20;26.70;94.80
22145;DHT22;11238;48.730;11.566;2022-08-21T12:58:54;26.80;91.60
22145;DHT22;11238;48.730;11.566;2022-08-21T13:01:31;26.60;90.60
22145;DHT22;11238;48.730;11.566;2022-08-21T13:04:24;26.30;92.70
22145;DHT22;11238;48.730;11.566;2022-08-21T13:06:52;26.40;93.10
22145;DHT22;11238;48.730;11.566;2022-08-21T13:09:23;26.60;92.60
22145;DHT22;11238;48.730;11.566;2022-08-21T13:11:50;26.80;90.70
22145;DHT22;11238;48.730;11.566;2022-08-21T13:14:35;26.60;90.30
22145;DHT22;11238;48.730;11.566;2022-08-21T13:17:04;26.50;91.80
22145;DHT22;11238;48.730;11.566;2022-08-21T13:19:31;26.50;90.60
22145;DHT22;11238;48.730;11.566;2022-08-21T13:21:59;26.50;87.50
22145;DHT22;11238;48.730;11.566;2022-08-21T13:24:26;26.50;90.30
22145;DHT22;11238;48.730;11.566;2022-08-21T13:26:53;26.80;91.00
22145;DHT22;11238;48.730;11.566;2022-08-21T13:29:22;27.00;88.60
22145;DHT22;11238;48.730;11.566;2022-08-21T13:31:55;27.30;92.70
22145;DHT22;11238;48.730;11.566;2022-08-21T13:34:24;27.40;86.50
22145;DHT22;11238;48.730;11.566;2022-08-21T13:36:54;27.10;82.00
22145;DHT22;11238;48.730;11.566;2022-08-21T13:39:21;27.00;82.70
22145;DHT22;11238;48.730;11.566;2022-08-21T13:41:50;27.20;78.50
22145;DHT22;11238;48.730;11.566;2022-08-21T13:44:22;27.30;84.00
22145;DHT22;11238;48.730;11.566;2022-08-21T13:46:52;27.30;84.30
22145;DHT22;11238;48.730;11.566;2022-08-21T13:49:21;27.50;84.20
22145;DHT22;11238;48.730;11.566;2022-08-21T13:51:49;27.50;78.30
22145;DHT22;11238;48.730;11.566;2022-08-21T13:54:22;27.50;82.10
22145;DHT22;11238;48.730;11.566;2022-08-21T13:56:49;27.40;77.00
22145;DHT22;11238;48.730;11.566;2022-08-21T13:59:28;27.00;79.20
22145;DHT22;11238;48.730;11.566;2022-08-21T14:02:18;26.70;76.40
22145;DHT22;11238;48.730;11.566;2022-08-21T14:04:55;26.60;80.70
22145;DHT22;11238;48.730;11.566;2022-08-21T14:07:28;26.60;80.80
22145;DHT22;11238;48.730;11.566;2022-08-21T14:09:54;26.60;80.70
22145;DHT22;11238;48.730;11.566;2022-08-21T14:12:28;26.90;83.60
22145;DHT22;11238;48.730;11.566;2022-08-21T14:14:56;27.00;85.30
22145;DHT22;11238;48.730;11.566;2022-08-21T14:17:33;27.20;81.80
22145;DHT22;11238;48.730;11.566;2022-08-21T14:20:02;27.30;81.80
22145;DHT22;11238;48.730;11.566;2022-08-21T14:22:44;27.60;86.10
22145;DHT22;11238;48.730;11.566;2022-08-21T14:27:54;27.60;78.10
22145;DHT22;11238;48.730;11.566;2022-08-21T14:30:27;27.70;82.00
22145;DHT22;11238;48.730;11.566;2022-08-21T14:32:54;27.50;79.00
22145;DHT22;11238;48.730;11.566;2022-08-21T14:35:20;27.40;76.70
22145;DHT22;11238;48.730;11.566;2022-08-21T14:37:47;27.50;77.20
22145;DHT22;11238;48.730;11.566;2022-08-21T14:40:17;27.70;81.20
22145;DHT22;11238;48.730;11.566;2022-08-21T14:42:44;27.80;78.30
22145;DHT22;11238;48.730;11.566;2022-08-21T14:45:33;27.60;79.50
22145;DHT22;11238;48.730;11.566;2022-08-21T14:48:00;27.40;77.80
22145;DHT22;11238;48.730;11.566;2022-08-21T14:50:26;27.50;79.00
22145;DHT22;11238;48.730;11.566;2022-08-21T14:52:52;27.60;79.80
22145;DHT22;11238;48.730;11.566;2022-08-21T14:55:18;27.90;81.60
22145;DHT22;11238;48.730;11.566;2022-08-21T14:57:49;28.10;76.30
22145;DHT22;11238;48.730;11.566;2022-08-21T15:00:19;28.00;73.70
22145;DHT22;11238;48.730;11.566;2022-08-21T15:02:46;27.80;71.30
22145;DHT22;11238;48.730;11.566;2022-08-21T15:05:12;27.90;75.20
22145;DHT22;11238;48.730;11.566;2022-08-21T15:07:38;27.90;75.30
22145;DHT22;11238;48.730;11.566;2022-08-21T15:10:05;28.00;77.00
22145;DHT22;11238;48.730;11.566;2022-08-21T15:12:31;27.80;71.40
22145;DHT22;11238;48.730;11.566;2022-08-21T15:14:58;27.80;72.60
22145;DHT22;11238;48.730;11.566;2022-08-21T15:17:24;28.00;76.00
22145;DHT22;11238;48.730;11.566;2022-08-21T15:19:49;28.00;74.10
22145;DHT22;11238;48.730;11.566;2022-08-21T15:22:15;28.00;74.60
22145;DHT22;11238;48.730;11.566;2022-08-21T15:24:41;27.80;71.70
22145;DHT22;11238;48.730;11.566;2022-08-21T15:27:08;27.90;72.90
22145;DHT22;11238;48.730;11.566;2022-08-21T15:29:34;28.00;74.10
22145;DHT22;11238;48.730;11.566;2022-08-21T15:32:20;28.00;73.30
22145;DHT22;11238;48.730;11.566;2022-08-21T15:34:48;28.00;72.10
22145;DHT22;11238;48.730;11.566;2022-08-21T15:37:14;28.00;75.30
22145;DHT22;11238;48.730;11.566;2022-08-21T15:39:40;27.90;72.00
22145;DHT22;11238;48.730;11.566;2022-08-21T15:42:06;27.50;71.60
22145;DHT22;11238;48.730;11.566;2022-08-21T15:44:32;27.30;70.40
22145;DHT22;11238;48.730;11.566;2022-08-21T15:46:59;27.10;74.40
22145;DHT22;11238;48.730;11.566;2022-08-21T15:49:24;26.70;72.50
22145;DHT22;11238;48.730;11.566;2022-08-21T15:51:51;26.40;75.40
22145;DHT22;11238;48.730;11.566;2022-08-21T15:54:17;26.40;74.80
22145;DHT22;11238;48.730;11.566;2022-08-21T15:56:45;26.50;75.80
22145;DHT22;11238;48.730;11.566;2022-08-21T15:59:19;26.50;74.10
22145;DHT22;11238;48.730;11.566;2022-08-21T16:01:49;26.60;72.50
22145;DHT22;11238;48.730;11.566;2022-08-21T16:04:23;26.60;73.30
22145;DHT22;11238;48.730;11.566;2022-08-21T16:06:50;26.70;75.50
22145;DHT22;11238;48.730;11.566;2022-08-21T16:09:15;26.60;74.70
22145;DHT22;11238;48.730;11.566;2022-08-21T16:11:43;26.50;75.00
22145;DHT22;11238;48.730;11.566;2022-08-21T16:14:14;26.40;70.60
22145;DHT22;11238;48.730;11.566;2022-08-21T16:16:41;26.40;73.80
22145;DHT22;11238;48.730;11.566;2022-08-21T16:19:08;26.40;71.00
22145;DHT22;11238;48.730;11.566;2022-08-21T16:21:35;26.40;71.50
22145;DHT22;11238;48.730;11.566;2022-08-21T16:24:01;26.20;70.90
22145;DHT22;11238;48.730;11.566;2022-08-21T16:26:28;26.20;72.00
22145;DHT22;11238;48.730;11.566;2022-08-21T16:28:56;26.20;70.90
22145;DHT22;11238;48.730;11.566;2022-08-21T16:31:24;26.20;70.50
22145;DHT22;11238;48.730;11.566;2022-08-21T16:33:53;26.10;68.20
22145;DHT22;11238;48.730;11.566;2022-08-21T16:36:20;25.90;69.70
22145;DHT22;11238;48.730;11.566;2022-08-21T16:38:47;25.80;72.40
22145;DHT22;11238;48.730;11.566;2022-08-21T16:41:16;25.80;72.60
22145;DHT22;11238;48.730;11.566;2022-08-21T16:43:43;25.70;75.20